Data for 01/31/2008

Time Sea-Level Adjusted Pressure Absolute Pressure Temperature Relative Humidity Dew Point   
(mb) (inHg) (mb) (inHg) (C) (F) (%) (C) (F)
00:05 1012 29.88 841 24.83 -6 21.1 45 -16.2 2.8
00:10 1012 29.88 841 24.83 -6 21.2 44 -16.4 2.5
00:15 1012 29.88 841 24.83 -5.9 21.4 43 -16.6 2.2
00:20 1012 29.88 841 24.83 -5.7 21.7 43 -16.5 2.3
00:25 1012 29.88 841 24.83 -5.6 22 41 -16.8 1.8
00:30 1012 29.88 841 24.83 -5.5 22.2 41 -16.7 2
00:35 1012 29.88 841 24.83 -5.3 22.5 41 -16.7 1.9
00:40 1012 29.88 841 24.83 -5.1 22.8 41 -16.5 2.3
00:45 1012 29.88 841 24.83 -5 23 41 -16.3 2.7
00:50 1012 29.88 841 24.83 -5 23 42 -16.1 3.1
00:55 1012 29.88 841 24.83 -4.9 23.2 42 -15.9 3.3
01:00 1012 29.88 841 24.83 -4.9 23.1 42 -15.9 3.4
01:05 1012 29.88 841 24.83 -4.9 23.1 44 -15.4 4.3
01:10 1012 29.88 841 24.83 -4.9 23.1 42 -15.9 3.4
01:15 1012 29.88 841 24.83 -4.8 23.3 42 -15.9 3.4
01:20 1012 29.88 841 24.83 -4.8 23.4 41 -16.2 2.8
01:25 1012 29.88 841 24.83 -4.6 23.7 40 -16.3 2.7
01:30 1012 29.88 841 24.83 -4.6 23.7 41 -16 3.3
01:35 1012 29.88 841 24.83 -4.8 23.3 44 -15.4 4.3
01:40 1012 29.88 841 24.83 -5.1 22.7 44 -15.6 4
01:45 1012 29.88 841 24.83 -5.3 22.5 44 -15.8 3.6
01:50 1012 29.88 841 24.83 -5.3 22.4 45 -15.5 4.1
01:55 1012 29.88 841 24.83 -5.3 22.5 43 -16 3.3
02:00 1012 29.88 841 24.83 -5.2 22.6 43 -16 3.1
02:05 1012 29.88 841 24.83 -5.1 22.8 43 -15.8 3.6
02:10 1012 29.88 841 24.83 -5.1 22.8 44 -15.7 3.8
02:15 1012 29.88 841 24.83 -5.2 22.6 44 -15.7 3.7
02:20 1012 29.88 841 24.83 -5.3 22.4 46 -15.3 4.4
02:25 1012 29.88 841 24.83 -5.5 22.1 45 -15.6 4
02:30 1012 29.88 841 24.83 -5.5 22.1 46 -15.4 4.3
02:35 1012 29.88 841 24.83 -5.5 22.2 46 -15.4 4.3
02:40 1012 29.88 841 24.83 -5.6 21.9 48 -15.1 4.8
02:45 1012 29.88 841 24.83 -5.9 21.4 49 -14.9 5.2
02:50 1012 29.88 841 24.83 -6.1 21 49 -15.2 4.6
02:55 1012 29.88 841 24.83 -6 21.2 45 -16.1 3
03:00 1012 29.88 841 24.83 -5.9 21.4 48 -15.3 4.5
03:05 1011 29.85 841 24.83 -6.2 20.9 45 -16.2 2.8
03:10 1011 29.85 840 24.81 -6.1 20.9 45 -16.2 2.8
03:15 1011 29.85 840 24.81 -6.3 20.7 48 -15.5 4.1
03:20 1011 29.85 840 24.81 -6.7 20 46 -16.5 2.3
03:25 1011 29.85 840 24.81 -6.4 20.4 46 -16.2 2.8
03:30 1011 29.85 840 24.81 -6.5 20.4 48 -15.7 3.8
03:35 1011 29.85 840 24.81 -6.7 20 48 -15.9 3.4
03:40 1011 29.85 840 24.81 -6.8 19.8 49 -15.8 3.5
03:45 1011 29.85 841 24.83 -6.9 19.6 49 -15.9 3.4
03:50 1011 29.85 841 24.83 -7.1 19.2 50 -15.7 3.7
03:55 1011 29.85 841 24.83 -7.4 18.6 51 -16 3.2
04:00 1011 29.85 841 24.83 -7.6 18.3 52 -15.9 3.3
04:05 1011 29.85 840 24.81 -7.7 18.1 50 -16.5 2.4
04:10 1011 29.85 840 24.81 -7.2 19.1 48 -16.5 2.3
04:15 1011 29.85 840 24.81 -7.3 18.8 50 -16.1 3
04:20 1011 29.85 840 24.81 -7.9 17.8 51 -16.3 2.7
04:25 1011 29.85 840 24.81 -8.1 17.4 52 -16.3 2.7
04:30 1011 29.85 840 24.81 -8.4 16.8 54 -16.2 2.8
04:35 1011 29.85 840 24.81 -8.6 16.6 53 -16.6 2.1
04:40 1011 29.85 840 24.81 -8.5 16.6 52 -16.8 1.8
04:45 1010 29.83 840 24.81 -8.5 16.8 52 -16.7 1.9
04:50 1010 29.83 839 24.78 -8.3 17 51 -16.8 1.8
04:55 1010 29.83 839 24.78 -7.9 17.7 48 -17.1 1.2
05:00 1010 29.83 839 24.78 -7.5 18.6 47 -17.1 1.3
05:05 1010 29.83 839 24.78 -7.2 19 47 -16.7 1.9
05:10 1010 29.83 839 24.78 -7.2 19 46 -16.9 1.6
05:15 1010 29.83 839 24.78 -6.9 19.6 45 -17.1 1.3
05:20 1010 29.83 839 24.78 -6.4 20.5 44 -16.9 1.7
05:25 1010 29.83 839 24.78 -5.8 21.5 41 -17.1 1.2
05:30 1010 29.83 839 24.78 -5.3 22.5 39 -17.3 0.9
05:35 1009 29.8 839 24.78 -5.2 22.6 42 -16.1 3
05:40 1009 29.8 838 24.75 -5.6 22 41 -16.9 1.6
05:45 1009 29.8 838 24.75 -5.6 21.9 43 -16.2 2.8
05:50 1009 29.8 838 24.75 -5.9 21.3 45 -15.9 3.3
05:55 1009 29.8 839 24.78 -6 21.3 44 -16.4 2.5
06:00 1009 29.8 839 24.78 -5.4 22.3 43 -16 3.2
06:05 1009 29.8 838 24.75 -5.4 22.3 43 -16.1 3
06:10 1009 29.8 838 24.75 -5.4 22.4 46 -15.4 4.3
06:15 1009 29.8 838 24.75 -5.6 21.9 44 -16 3.1
06:20 1009 29.8 838 24.75 -5.4 22.3 43 -16.1 3
06:25 1009 29.8 838 24.75 -5.5 22 44 -16 3.3
06:30 1009 29.8 838 24.75 -5.7 21.7 46 -15.7 3.8
06:35 1009 29.8 838 24.75 -5.8 21.6 48 -15.3 4.5
06:40 1009 29.8 838 24.75 -5.9 21.5 44 -16.2 2.8
06:45 1009 29.8 838 24.75 -5.5 22.1 43 -16.3 2.7
06:50 1009 29.8 838 24.75 -5.1 22.8 43 -16 3.3
06:55 1009 29.8 838 24.75 -5 23.1 41 -16.3 2.7
07:00 1009 29.8 838 24.75 -4.9 23.1 41 -16.2 2.8
07:05 1009 29.8 838 24.75 -4.9 23.1 43 -15.8 3.5
07:10 1009 29.8 838 24.75 -5 23 42 -16 3.3
07:15 1009 29.8 838 24.75 -5 22.9 43 -15.7 3.8
07:20 1009 29.8 838 24.75 -5.1 22.8 45 -15.4 4.3
07:25 1009 29.8 838 24.75 -5.4 22.4 47 -15 5
07:30 1009 29.8 838 24.75 -5.4 22.4 45 -15.5 4
07:35 1009 29.8 838 24.75 -5.4 22.2 47 -15.2 4.7
07:40 1009 29.8 838 24.75 -5.4 22.3 46 -15.2 4.7
07:45 1009 29.8 838 24.75 -5.7 21.8 49 -14.9 5.2
07:50 1009 29.8 838 24.75 -5.7 21.7 48 -15.2 4.6
07:55 1009 29.8 838 24.75 -5.8 21.6 47 -15.4 4.3
08:00 1008 29.77 838 24.75 -5.7 21.7 48 -15 5.1
08:05 1008 29.77 838 24.75 -5.7 21.7 49 -14.9 5.1
08:10 1008 29.77 838 24.75 -5.9 21.5 49 -14.9 5.2
08:15 1008 29.77 838 24.75 -5.9 21.5 49 -15 5
08:20 1008 29.77 838 24.75 -5.7 21.7 48 -15.1 4.8
08:25 1008 29.77 838 24.75 -5.3 22.5 44 -15.7 3.7
08:30 1008 29.77 838 24.75 -4.6 23.7 41 -15.9 3.3
08:35 1009 29.8 838 24.75 -4.5 24 41 -15.8 3.5
08:40 1009 29.8 838 24.75 -4.2 24.4 42 -15.3 4.5
08:45 1009 29.8 838 24.75 -4.3 24.3 43 -15.2 4.7
08:50 1009 29.8 838 24.75 -4.3 24.3 44 -14.9 5.2
08:55 1009 29.8 838 24.75 -4 24.8 41 -15.5 4.1
09:00 1008 29.77 838 24.75 -3.7 25.3 42 -14.9 5.1
09:05 1008 29.77 838 24.75 -4.1 24.7 45 -14.4 6
09:10 1008 29.77 838 24.75 -4.3 24.2 45 -14.7 5.5
09:15 1008 29.77 838 24.75 -4.2 24.4 46 -14.3 6.2
09:20 1008 29.77 837 24.72 -4.3 24.3 48 -13.6 7.5
09:25 1008 29.77 837 24.72 -4.2 24.4 48 -13.6 7.5
09:30 1008 29.77 837 24.72 -4.3 24.3 49 -13.6 7.6
09:35 1008 29.77 837 24.72 -4.2 24.5 49 -13.5 7.8
09:40 1008 29.77 837 24.72 -4.1 24.7 48 -13.6 7.5
09:45 1008 29.77 837 24.72 -3.8 25.1 48 -13.2 8.2
09:50 1008 29.77 837 24.72 -3.8 25.2 47 -13.5 7.7
09:55 1008 29.77 837 24.72 -3.7 25.3 48 -13.3 8
10:00 1008 29.77 837 24.72 -3.6 25.6 48 -13.2 8.3
10:05 1008 29.77 837 24.72 -3.5 25.8 48 -13 8.6
10:10 1008 29.77 837 24.72 -3.4 25.9 49 -12.7 9.1
10:15 1008 29.77 837 24.72 -3.3 26.1 49 -12.6 9.3
10:20 1008 29.77 837 24.72 -3.2 26.3 49 -12.5 9.5
10:25 1007 29.74 837 24.72 -3.1 26.4 48 -12.5 9.5
10:30 1007 29.74 837 24.72 -3 26.6 49 -12.4 9.6
10:35 1008 29.77 837 24.72 -2.8 26.9 47 -12.7 9.2
10:40 1007 29.74 837 24.72 -2.6 27.3 48 -12.3 9.9
10:45 1007 29.74 837 24.72 -2.6 27.3 47 -12.4 9.7
10:50 1007 29.74 837 24.72 -2.4 27.6 47 -12.3 9.8
10:55 1007 29.74 836 24.69 -2.3 27.9 45 -12.6 9.3
11:00 1007 29.74 836 24.69 -2.4 27.7 46 -12.4 9.6
11:05 1007 29.74 836 24.69 -2.1 28.2 43 -13 8.5
11:10 1007 29.74 836 24.69 -1.5 29.3 41 -13.1 8.5
11:15 1007 29.74 836 24.69 -1.5 29.3 40 -13.4 7.8
11:20 1007 29.74 836 24.69 -1 30.2 42 -12.5 9.5
11:25 1007 29.74 836 24.69 -0.3 31.5 38 -12.9 8.7
11:30 1007 29.74 836 24.69 -0.4 31.4 38 -13 8.6
11:35 1007 29.74 836 24.69 -0.9 30.4 41 -12.4 9.7
11:40 1007 29.74 836 24.69 -1.1 30.1 43 -12.1 10.2
11:45 1007 29.74 836 24.69 -1.1 30.1 42 -12.5 9.5
11:50 1007 29.74 836 24.69 -1.2 29.9 44 -12 10.4
11:55 1007 29.74 836 24.69 -1.2 29.9 42 -12.5 9.4
12:00 1006 29.71 836 24.69 -0.8 30.6 39 -13.2 8.3
12:05 1006 29.71 836 24.69 -0.6 30.8 39 -12.9 8.8
12:10 1006 29.71 835 24.66 -0.5 31.2 42 -11.9 10.5
12:15 1006 29.71 835 24.66 -0.6 30.9 41 -12.2 10
12:20 1006 29.71 835 24.66 -0.7 30.7 40 -12.8 9
12:25 1006 29.71 835 24.66 -0.5 31.2 37 -13.4 7.9
12:30 1006 29.71 835 24.66 0.2 32.3 36 -13.4 7.9
12:35 1006 29.71 835 24.66 0.3 32.5 36 -13.3 8.1
12:40 1006 29.71 835 24.66 0 32.1 40 -12.2 10.1
12:45 1006 29.71 835 24.66 -0.1 31.9 40 -12 10.4
12:50 1006 29.71 835 24.66 -0.1 31.7 41 -12 10.4
12:55 1006 29.71 835 24.66 -0.4 31.2 44 -11.4 11.5
13:00 1006 29.71 835 24.66 -0.7 30.8 44 -11.4 11.5
13:05 1006 29.71 835 24.66 -0.8 30.6 45 -11.3 11.6
13:10 1005 29.68 835 24.66 -1 30.2 44 -11.7 10.9
13:15 1005 29.68 835 24.66 -1 30.3 44 -11.7 11
13:20 1005 29.68 834 24.63 -0.9 30.4 43 -11.9 10.6
13:25 1005 29.68 834 24.63 -0.6 31 41 -12.2 10
13:30 1005 29.68 834 24.63 -0.5 31 42 -11.9 10.6
13:35 1005 29.68 834 24.63 -0.7 30.8 41 -12.4 9.7
13:40 1005 29.68 834 24.63 -0.5 31.2 42 -12 10.5
13:45 1005 29.68 834 24.63 -0.3 31.5 42 -11.7 10.9
13:50 1005 29.68 834 24.63 -0.1 31.9 43 -11.3 11.6
13:55 1005 29.68 834 24.63 -0.1 31.9 42 -11.5 11.4
14:00 1005 29.68 834 24.63 -0.3 31.5 42 -11.7 10.9
14:05 1005 29.68 834 24.63 -0.3 31.5 41 -11.9 10.5
14:10 1005 29.68 834 24.63 0.1 32.1 40 -12.1 10.1
14:15 1005 29.68 834 24.63 0.3 32.5 39 -12.2 10.1
14:20 1005 29.68 834 24.63 0 32.1 41 -11.8 10.8
14:25 1004 29.65 834 24.63 -0.1 31.9 39 -12.6 9.4
14:30 1004 29.65 834 24.63 0.3 32.5 40 -11.9 10.6
14:35 1004 29.65 833 24.6 0.4 32.7 38 -12.2 10
14:40 1004 29.65 833 24.6 0.6 33 40 -11.7 10.9
14:45 1004 29.65 833 24.6 0.6 33.2 40 -11.4 11.5
14:50 1004 29.65 833 24.6 0.5 32.9 40 -11.6 11.2
14:55 1004 29.65 833 24.6 0.3 32.5 39 -12 10.4
15:00 1004 29.65 833 24.6 0.2 32.3 42 -11.4 11.5
15:05 1004 29.65 833 24.6 0.1 32.2 42 -11.4 11.5
15:10 1004 29.65 833 24.6 -0 31.9 41 -11.9 10.6
15:15 1004 29.65 833 24.6 -0.2 31.7 42 -11.6 11
15:20 1004 29.65 833 24.6 -0.5 31.2 43 -11.7 11
15:25 1004 29.65 833 24.6 -0.4 31.3 42 -11.8 10.8
15:30 1004 29.65 833 24.6 -0.5 31.1 42 -11.8 10.8
15:35 1004 29.65 833 24.6 -0.6 31 45 -11.1 12
15:40 1004 29.65 833 24.6 -0.6 30.9 47 -10.6 12.8
15:45 1004 29.65 833 24.6 -0.8 30.5 44 -11.5 11.3
15:50 1004 29.65 833 24.6 -0.8 30.5 46 -10.9 12.3
15:55 1004 29.65 833 24.6 -0.9 30.3 46 -11.1 12
16:00 1004 29.65 833 24.6 -0.8 30.6 47 -10.8 12.6
16:05 1004 29.65 833 24.6 -0.7 30.7 46 -10.9 12.4
16:10 1004 29.65 833 24.6 -0.8 30.5 46 -11.2 11.8
16:15 1003 29.62 833 24.6 -1 30.2 47 -11 12.1
16:20 1004 29.65 833 24.6 -1 30.2 47 -11 12.1
16:25 1003 29.62 833 24.6 -1 30.2 49 -10.4 13.2
16:30 1003 29.62 833 24.6 -1 30.1 45 -11.4 11.5
16:35 1003 29.62 832 24.57 -1.1 30.1 48 -10.9 12.4
16:40 1003 29.62 832 24.57 -1.2 29.9 46 -11.4 11.5
16:45 1003 29.62 832 24.57 -1 30.2 47 -10.9 12.4
16:50 1003 29.62 832 24.57 -1 30.3 46 -11.1 12
16:55 1003 29.62 832 24.57 -0.9 30.3 47 -10.8 12.5
17:00 1003 29.62 832 24.57 -1.2 29.9 44 -12 10.3
17:05 1003 29.62 832 24.57 -1.2 29.8 46 -11.4 11.5
17:10 1003 29.62 832 24.57 -1.3 29.7 46 -11.6 11.1
17:15 1003 29.62 832 24.57 -1.3 29.7 48 -11 12.1
17:20 1003 29.62 832 24.57 -1.3 29.7 47 -11.2 11.9
17:25 1003 29.62 832 24.57 -1.5 29.3 47 -11.4 11.5
17:30 1003 29.62 832 24.57 -1.3 29.6 45 -11.8 10.8
17:35 1003 29.62 832 24.57 -1.5 29.4 50 -10.7 12.8
17:40 1003 29.62 833 24.6 -1.5 29.3 47 -11.5 11.2
17:45 1003 29.62 832 24.57 -1.3 29.6 45 -11.9 10.6
17:50 1003 29.62 833 24.6 -1.4 29.5 45 -11.8 10.8
17:55 1003 29.62 833 24.6 -1.4 29.4 45 -11.8 10.7
18:00 1003 29.62 832 24.57 -1.2 29.8 47 -11.2 11.8
18:05 1003 29.62 832 24.57 -1.6 29.2 47 -11.4 11.5
18:10 1003 29.62 832 24.57 -1.3 29.6 46 -11.6 11.1
18:15 1003 29.62 832 24.57 -1.3 29.7 48 -10.9 12.3
18:20 1003 29.62 832 24.57 -1.5 29.3 47 -11.3 11.6
18:25 1003 29.62 832 24.57 -1.7 29 49 -11 12.2
18:30 1003 29.62 832 24.57 -1.7 28.9 46 -12 10.4
18:35 1003 29.62 832 24.57 -1.6 29.1 50 -10.7 12.7
18:40 1003 29.62 832 24.57 -1.6 29 46 -11.7 10.9
18:45 1003 29.62 832 24.57 -1.7 29 51 -10.6 12.9
18:50 1003 29.62 832 24.57 -1.8 28.7 49 -11.1 12
18:55 1003 29.62 832 24.57 -1.6 29.1 47 -11.6 11.1
19:00 1003 29.62 832 24.57 -1.6 29.1 49 -11 12.1
19:05 1003 29.62 832 24.57 -1.8 28.7 49 -11.2 11.8
19:10 1003 29.62 832 24.57 -1.8 28.8 48 -11.4 11.4
19:15 1003 29.62 832 24.57 -1.8 28.8 48 -11.3 11.6
19:20 1003 29.62 832 24.57 -1.8 28.8 49 -11.2 11.9
19:25 1003 29.62 833 24.6 -1.7 28.9 50 -10.8 12.6
19:30 1003 29.62 833 24.6 -1.8 28.7 52 -10.5 13.1
19:35 1003 29.62 832 24.57 -2 28.3 52 -10.7 12.7
19:40 1003 29.62 833 24.6 -2.1 28.3 50 -11.1 12.1
19:45 1003 29.62 833 24.6 -1.8 28.7 51 -10.8 12.6
19:50 1004 29.65 833 24.6 -1.7 28.9 50 -10.8 12.6
19:55 1003 29.62 833 24.6 -1.7 28.9 51 -10.7 12.8
20:00 1003 29.62 833 24.6 -1.7 29 50 -10.9 12.5
20:05 1003 29.62 833 24.6 -1.7 28.9 49 -11 12.3
20:10 1004 29.65 833 24.6 -2.1 28.3 53 -10.5 13.1
20:15 1004 29.65 833 24.6 -1.9 28.5 47 -11.8 10.8
20:20 1004 29.65 833 24.6 -1.5 29.2 49 -11 12.1
20:25 1004 29.65 833 24.6 -1.5 29.3 51 -10.4 13.2
20:30 1004 29.65 833 24.6 -1.8 28.8 52 -10.4 13.3
20:35 1004 29.65 833 24.6 -2.2 28.1 54 -10.3 13.4
20:40 1004 29.65 833 24.6 -2.3 27.9 55 -10.2 13.6
20:45 1003 29.62 833 24.6 -2.3 27.9 55 -10.2 13.7
20:50 1003 29.62 833 24.6 -2.1 28.2 55 -10.1 13.8
20:55 1004 29.65 833 24.6 -2.1 28.3 54 -10.1 13.7
21:00 1004 29.65 833 24.6 -2.1 28.2 54 -10.1 13.7
21:05 1003 29.62 833 24.6 -2.2 28.1 56 -9.7 14.5
21:10 1004 29.65 833 24.6 -2.2 28.1 56 -9.9 14.2
21:15 1004 29.65 833 24.6 -2.1 28.2 56 -9.8 14.3
21:20 1004 29.65 833 24.6 -2.1 28.3 56 -9.8 14.4
21:25 1004 29.65 833 24.6 -2.1 28.2 55 -9.9 14.2
21:30 1003 29.62 833 24.6 -2 28.3 57 -9.5 14.9
21:35 1004 29.65 833 24.6 -2.2 28.1 57 -9.6 14.7
21:40 1003 29.62 833 24.6 -2.3 27.8 57 -9.8 14.4
21:45 1003 29.62 833 24.6 -2.3 27.8 57 -9.8 14.4
21:50 1003 29.62 833 24.6 -2.3 27.9 57 -9.8 14.3
21:55 1003 29.62 833 24.6 -2.3 27.9 57 -9.7 14.5
22:00 1003 29.62 833 24.6 -2.4 27.8 57 -9.8 14.4
22:05 1003 29.62 833 24.6 -2.3 27.8 56 -9.8 14.3
22:10 1003 29.62 833 24.6 -2.4 27.7 58 -9.6 14.7
22:15 1003 29.62 833 24.6 -2.4 27.6 57 -9.7 14.5
22:20 1003 29.62 833 24.6 -2.4 27.6 58 -9.7 14.6
22:25 1003 29.62 833 24.6 -2.4 27.7 57 -9.8 14.4
22:30 1003 29.62 833 24.6 -2.5 27.6 58 -9.7 14.5
22:35 1003 29.62 833 24.6 -2.4 27.6 57 -9.9 14.1
22:40 1003 29.62 833 24.6 -2.5 27.5 58 -9.7 14.5
22:45 1004 29.65 833 24.6 -2.5 27.6 57 -9.8 14.4
22:50 1004 29.65 833 24.6 -2.4 27.7 58 -9.7 14.6
22:55 1004 29.65 833 24.6 -2.4 27.8 57 -9.8 14.4
23:00 1004 29.65 833 24.6 -2.4 27.7 57 -9.7 14.6
23:05 1004 29.65 833 24.6 -2.4 27.6 58 -9.7 14.6
23:10 1004 29.65 833 24.6 -2.4 27.6 58 -9.6 14.7
23:15 1004 29.65 833 24.6 -2.5 27.5 59 -9.4 15.1
23:20 1004 29.65 833 24.6 -2.6 27.4 60 -9.3 15.2
23:25 1004 29.65 833 24.6 -2.5 27.4 62 -8.9 16
23:30 1004 29.65 833 24.6 -2.6 27.3 63 -8.6 16.5
23:35 1004 29.65 833 24.6 -2.6 27.3 64 -8.5 16.7
23:40 1004 29.65 833 24.6 -2.6 27.3 63 -8.8 16.2
23:45 1004 29.65 833 24.6 -2.7 27.2 62 -9 15.9
23:50 1004 29.65 834 24.63 -2.6 27.4 63 -8.8 16.2
23:55 1004 29.65 834 24.63 -2.6 27.4 62 -8.9 16
24:00 1004 29.65 834 24.63 -2.6 27.3 62 -8.9 16